sensor_id;sensor_type;location;lat;lon;timestamp;P1;durP1;ratioP1;P2;durP2;ratioP2
5195;SDS011;2617;51.006;12.436;2022-08-19T00:00:44;37.93;;;26.70;;
5195;SDS011;2617;51.006;12.436;2022-08-19T00:05:48;39.00;;;27.00;;
5195;SDS011;2617;51.006;12.436;2022-08-19T00:10:50;38.83;;;28.20;;
5195;SDS011;2617;51.006;12.436;2022-08-19T00:15:52;46.57;;;29.50;;
5195;SDS011;2617;51.006;12.436;2022-08-19T00:20:55;47.50;;;30.53;;
5195;SDS011;2617;51.006;12.436;2022-08-19T00:25:57;45.93;;;31.03;;
5195;SDS011;2617;51.006;12.436;2022-08-19T00:31:00;43.83;;;29.80;;
5195;SDS011;2617;51.006;12.436;2022-08-19T00:36:03;46.07;;;30.47;;
5195;SDS011;2617;51.006;12.436;2022-08-19T00:41:05;47.53;;;32.00;;
5195;SDS011;2617;51.006;12.436;2022-08-19T00:46:08;52.23;;;33.87;;
5195;SDS011;2617;51.006;12.436;2022-08-19T00:51:11;49.67;;;32.70;;
5195;SDS011;2617;51.006;12.436;2022-08-19T00:56:14;56.03;;;35.60;;
5195;SDS011;2617;51.006;12.436;2022-08-19T01:01:16;52.80;;;32.67;;
5195;SDS011;2617;51.006;12.436;2022-08-19T01:06:20;59.23;;;35.60;;
5195;SDS011;2617;51.006;12.436;2022-08-19T01:11:22;52.67;;;35.53;;
5195;SDS011;2617;51.006;12.436;2022-08-19T01:16:25;56.10;;;37.07;;
5195;SDS011;2617;51.006;12.436;2022-08-19T01:21:31;58.37;;;36.60;;
5195;SDS011;2617;51.006;12.436;2022-08-19T01:26:38;61.53;;;37.03;;
5195;SDS011;2617;51.006;12.436;2022-08-19T01:31:37;59.70;;;37.07;;
5195;SDS011;2617;51.006;12.436;2022-08-19T01:36:41;55.23;;;36.80;;
5195;SDS011;2617;51.006;12.436;2022-08-19T01:41:43;61.56;;;39.64;;
5195;SDS011;2617;51.006;12.436;2022-08-19T01:46:46;70.20;;;39.87;;
5195;SDS011;2617;51.006;12.436;2022-08-19T01:51:49;52.62;;;36.97;;
5195;SDS011;2617;51.006;12.436;2022-08-19T01:56:51;60.63;;;38.87;;
5195;SDS011;2617;51.006;12.436;2022-08-19T02:01:54;67.40;;;40.40;;
5195;SDS011;2617;51.006;12.436;2022-08-19T02:06:57;56.80;;;36.90;;
5195;SDS011;2617;51.006;12.436;2022-08-19T02:11:59;57.03;;;38.23;;
5195;SDS011;2617;51.006;12.436;2022-08-19T02:17:03;59.60;;;36.67;;
5195;SDS011;2617;51.006;12.436;2022-08-19T02:22:06;56.67;;;38.63;;
5195;SDS011;2617;51.006;12.436;2022-08-19T02:27:08;59.37;;;38.20;;
5195;SDS011;2617;51.006;12.436;2022-08-19T02:32:11;61.43;;;37.97;;
5195;SDS011;2617;51.006;12.436;2022-08-19T02:37:14;63.33;;;39.55;;
5195;SDS011;2617;51.006;12.436;2022-08-19T02:42:22;63.93;;;38.67;;
5195;SDS011;2617;51.006;12.436;2022-08-19T02:47:25;59.00;;;37.00;;
5195;SDS011;2617;51.006;12.436;2022-08-19T02:52:28;52.23;;;35.33;;
5195;SDS011;2617;51.006;12.436;2022-08-19T02:57:30;56.43;;;37.97;;
5195;SDS011;2617;51.006;12.436;2022-08-19T03:02:33;51.93;;;36.00;;
5195;SDS011;2617;51.006;12.436;2022-08-19T03:07:36;54.63;;;37.23;;
5195;SDS011;2617;51.006;12.436;2022-08-19T03:12:38;54.50;;;36.33;;
5195;SDS011;2617;51.006;12.436;2022-08-19T03:17:40;59.67;;;37.23;;
5195;SDS011;2617;51.006;12.436;2022-08-19T03:22:43;57.90;;;36.30;;
5195;SDS011;2617;51.006;12.436;2022-08-19T03:27:45;56.53;;;38.63;;
5195;SDS011;2617;51.006;12.436;2022-08-19T03:32:49;56.20;;;37.10;;
5195;SDS011;2617;51.006;12.436;2022-08-19T03:37:51;57.22;;;37.92;;
5195;SDS011;2617;51.006;12.436;2022-08-19T03:42:53;59.77;;;38.00;;
5195;SDS011;2617;51.006;12.436;2022-08-19T03:47:56;57.77;;;37.53;;
5195;SDS011;2617;51.006;12.436;2022-08-19T03:52:58;66.93;;;40.90;;
5195;SDS011;2617;51.006;12.436;2022-08-19T03:58:01;67.60;;;40.70;;
5195;SDS011;2617;51.006;12.436;2022-08-19T04:03:03;74.33;;;41.77;;
5195;SDS011;2617;51.006;12.436;2022-08-19T04:08:06;65.87;;;40.77;;
5195;SDS011;2617;51.006;12.436;2022-08-19T04:13:08;71.62;;;40.67;;
5195;SDS011;2617;51.006;12.436;2022-08-19T04:18:10;68.27;;;42.40;;
5195;SDS011;2617;51.006;12.436;2022-08-19T04:23:14;64.20;;;40.57;;
5195;SDS011;2617;51.006;12.436;2022-08-19T04:28:16;59.60;;;40.37;;
5195;SDS011;2617;51.006;12.436;2022-08-19T04:33:21;60.60;;;39.07;;
5195;SDS011;2617;51.006;12.436;2022-08-19T04:38:21;66.73;;;41.47;;
5195;SDS011;2617;51.006;12.436;2022-08-19T04:43:25;59.70;;;38.43;;
5195;SDS011;2617;51.006;12.436;2022-08-19T04:48:27;66.20;;;42.17;;
5195;SDS011;2617;51.006;12.436;2022-08-19T04:53:30;69.57;;;41.88;;
5195;SDS011;2617;51.006;12.436;2022-08-19T04:58:32;67.28;;;41.10;;
5195;SDS011;2617;51.006;12.436;2022-08-19T05:03:35;75.10;;;42.23;;
5195;SDS011;2617;51.006;12.436;2022-08-19T05:08:39;73.70;;;42.10;;
5195;SDS011;2617;51.006;12.436;2022-08-19T05:13:41;68.07;;;42.37;;
5195;SDS011;2617;51.006;12.436;2022-08-19T05:18:43;76.57;;;43.23;;
5195;SDS011;2617;51.006;12.436;2022-08-19T05:23:51;68.10;;;41.50;;
5195;SDS011;2617;51.006;12.436;2022-08-19T05:28:54;63.17;;;41.50;;
5195;SDS011;2617;51.006;12.436;2022-08-19T05:33:57;55.53;;;38.70;;
5195;SDS011;2617;51.006;12.436;2022-08-19T05:39:00;51.23;;;35.73;;
5195;SDS011;2617;51.006;12.436;2022-08-19T05:44:03;56.80;;;38.23;;
5195;SDS011;2617;51.006;12.436;2022-08-19T05:49:06;51.70;;;35.63;;
5195;SDS011;2617;51.006;12.436;2022-08-19T05:54:08;55.67;;;35.50;;
5195;SDS011;2617;51.006;12.436;2022-08-19T05:59:10;55.57;;;36.20;;
5195;SDS011;2617;51.006;12.436;2022-08-19T06:04:13;48.83;;;35.80;;
5195;SDS011;2617;51.006;12.436;2022-08-19T06:09:18;46.08;;;31.27;;
5195;SDS011;2617;51.006;12.436;2022-08-19T06:14:21;43.73;;;30.97;;
5195;SDS011;2617;51.006;12.436;2022-08-19T06:19:22;43.33;;;31.93;;
5195;SDS011;2617;51.006;12.436;2022-08-19T06:24:26;47.13;;;32.40;;
5195;SDS011;2617;51.006;12.436;2022-08-19T06:29:28;46.80;;;32.30;;
5195;SDS011;2617;51.006;12.436;2022-08-19T06:34:32;42.43;;;31.90;;
5195;SDS011;2617;51.006;12.436;2022-08-19T06:39:35;39.13;;;30.58;;
5195;SDS011;2617;51.006;12.436;2022-08-19T06:44:37;42.15;;;32.92;;
5195;SDS011;2617;51.006;12.436;2022-08-19T06:49:38;40.67;;;32.83;;
5195;SDS011;2617;51.006;12.436;2022-08-19T06:54:41;45.17;;;33.40;;
5195;SDS011;2617;51.006;12.436;2022-08-19T06:59:44;45.00;;;32.70;;
5195;SDS011;2617;51.006;12.436;2022-08-19T07:04:48;49.13;;;35.25;;
5195;SDS011;2617;51.006;12.436;2022-08-19T07:09:50;45.07;;;34.13;;
5195;SDS011;2617;51.006;12.436;2022-08-19T07:14:53;51.63;;;37.60;;
5195;SDS011;2617;51.006;12.436;2022-08-19T07:19:56;55.12;;;38.78;;
5195;SDS011;2617;51.006;12.436;2022-08-19T07:24:58;49.07;;;35.90;;
5195;SDS011;2617;51.006;12.436;2022-08-19T07:30:01;48.40;;;35.30;;
5195;SDS011;2617;51.006;12.436;2022-08-19T07:35:03;59.07;;;36.70;;
5195;SDS011;2617;51.006;12.436;2022-08-19T07:40:07;59.37;;;37.30;;
5195;SDS011;2617;51.006;12.436;2022-08-19T07:45:11;62.63;;;38.00;;
5195;SDS011;2617;51.006;12.436;2022-08-19T07:50:13;55.93;;;34.70;;
5195;SDS011;2617;51.006;12.436;2022-08-19T07:55:21;54.63;;;36.10;;
5195;SDS011;2617;51.006;12.436;2022-08-19T08:00:20;58.10;;;37.20;;
5195;SDS011;2617;51.006;12.436;2022-08-19T08:05:23;54.70;;;37.95;;
5195;SDS011;2617;51.006;12.436;2022-08-19T08:10:31;58.53;;;38.00;;
5195;SDS011;2617;51.006;12.436;2022-08-19T08:15:33;59.58;;;36.03;;
5195;SDS011;2617;51.006;12.436;2022-08-19T08:20:37;63.42;;;37.42;;
5195;SDS011;2617;51.006;12.436;2022-08-19T08:25:39;54.30;;;34.57;;
5195;SDS011;2617;51.006;12.436;2022-08-19T08:30:41;55.27;;;36.43;;
5195;SDS011;2617;51.006;12.436;2022-08-19T08:35:44;53.43;;;36.03;;
5195;SDS011;2617;51.006;12.436;2022-08-19T08:40:47;50.87;;;37.13;;
5195;SDS011;2617;51.006;12.436;2022-08-19T08:45:52;52.63;;;33.97;;
5195;SDS011;2617;51.006;12.436;2022-08-19T08:51:18;56.40;;;33.37;;
5195;SDS011;2617;51.006;12.436;2022-08-19T08:56:29;47.13;;;32.00;;
5195;SDS011;2617;51.006;12.436;2022-08-19T09:01:31;42.83;;;29.27;;
5195;SDS011;2617;51.006;12.436;2022-08-19T09:12:19;38.90;;;29.03;;
5195;SDS011;2617;51.006;12.436;2022-08-19T09:17:33;57.47;;;30.13;;
5195;SDS011;2617;51.006;12.436;2022-08-19T09:22:36;38.77;;;28.03;;
5195;SDS011;2617;51.006;12.436;2022-08-19T09:27:39;43.20;;;29.10;;
5195;SDS011;2617;51.006;12.436;2022-08-19T09:32:40;43.23;;;29.43;;
5195;SDS011;2617;51.006;12.436;2022-08-19T09:37:43;38.33;;;27.97;;
5195;SDS011;2617;51.006;12.436;2022-08-19T09:42:48;39.80;;;29.70;;
5195;SDS011;2617;51.006;12.436;2022-08-19T09:47:51;53.80;;;30.40;;
5195;SDS011;2617;51.006;12.436;2022-08-19T09:52:53;40.40;;;29.20;;
5195;SDS011;2617;51.006;12.436;2022-08-19T09:57:56;52.45;;;34.40;;
5195;SDS011;2617;51.006;12.436;2022-08-19T10:02:59;47.53;;;34.75;;
5195;SDS011;2617;51.006;12.436;2022-08-19T10:08:02;56.03;;;36.67;;
5195;SDS011;2617;51.006;12.436;2022-08-19T10:13:04;61.05;;;37.92;;
5195;SDS011;2617;51.006;12.436;2022-08-19T10:18:07;69.30;;;42.00;;
5195;SDS011;2617;51.006;12.436;2022-08-19T10:23:09;62.10;;;40.17;;
5195;SDS011;2617;51.006;12.436;2022-08-19T10:28:12;60.93;;;37.10;;
5195;SDS011;2617;51.006;12.436;2022-08-19T10:33:14;60.90;;;39.73;;
5195;SDS011;2617;51.006;12.436;2022-08-19T10:38:17;58.93;;;35.90;;
5195;SDS011;2617;51.006;12.436;2022-08-19T10:43:25;66.87;;;37.88;;
5195;SDS011;2617;51.006;12.436;2022-08-19T10:48:27;61.08;;;35.47;;
5195;SDS011;2617;51.006;12.436;2022-08-19T10:53:29;61.00;;;34.27;;
5195;SDS011;2617;51.006;12.436;2022-08-19T10:58:34;50.43;;;34.20;;
5195;SDS011;2617;51.006;12.436;2022-08-19T11:03:36;55.12;;;35.65;;
5195;SDS011;2617;51.006;12.436;2022-08-19T11:08:39;53.93;;;32.07;;
5195;SDS011;2617;51.006;12.436;2022-08-19T11:13:42;42.90;;;30.20;;
5195;SDS011;2617;51.006;12.436;2022-08-19T11:18:45;40.83;;;26.20;;
5195;SDS011;2617;51.006;12.436;2022-08-19T11:23:49;44.10;;;26.10;;
5195;SDS011;2617;51.006;12.436;2022-08-19T11:28:51;45.08;;;27.40;;
5195;SDS011;2617;51.006;12.436;2022-08-19T11:33:55;43.23;;;28.13;;
5195;SDS011;2617;51.006;12.436;2022-08-19T11:38:58;37.43;;;25.60;;
5195;SDS011;2617;51.006;12.436;2022-08-19T11:44:02;43.00;;;25.10;;
5195;SDS011;2617;51.006;12.436;2022-08-19T11:49:05;37.25;;;22.83;;
5195;SDS011;2617;51.006;12.436;2022-08-19T11:54:08;38.73;;;22.70;;
5195;SDS011;2617;51.006;12.436;2022-08-19T11:59:10;24.53;;;20.40;;
5195;SDS011;2617;51.006;12.436;2022-08-19T12:04:13;28.60;;;21.60;;
5195;SDS011;2617;51.006;12.436;2022-08-19T12:09:16;27.93;;;21.03;;
5195;SDS011;2617;51.006;12.436;2022-08-19T12:14:19;22.40;;;17.07;;
5195;SDS011;2617;51.006;12.436;2022-08-19T12:19:22;26.92;;;19.20;;
5195;SDS011;2617;51.006;12.436;2022-08-19T12:24:24;25.10;;;19.60;;
5195;SDS011;2617;51.006;12.436;2022-08-19T12:29:27;26.10;;;20.30;;
5195;SDS011;2617;51.006;12.436;2022-08-19T12:34:31;25.20;;;19.53;;
5195;SDS011;2617;51.006;12.436;2022-08-19T12:39:34;28.98;;;20.33;;
5195;SDS011;2617;51.006;12.436;2022-08-19T12:44:38;32.10;;;21.12;;
5195;SDS011;2617;51.006;12.436;2022-08-19T12:49:41;25.40;;;20.20;;
5195;SDS011;2617;51.006;12.436;2022-08-19T12:54:43;26.67;;;18.37;;
5195;SDS011;2617;51.006;12.436;2022-08-19T12:59:46;25.37;;;19.23;;
5195;SDS011;2617;51.006;12.436;2022-08-19T13:04:48;26.40;;;18.50;;
5195;SDS011;2617;51.006;12.436;2022-08-19T13:09:51;22.73;;;16.70;;
5195;SDS011;2617;51.006;12.436;2022-08-19T13:14:54;24.03;;;16.00;;
5195;SDS011;2617;51.006;12.436;2022-08-19T13:19:56;19.47;;;15.83;;
5195;SDS011;2617;51.006;12.436;2022-08-19T13:24:58;20.57;;;16.07;;
5195;SDS011;2617;51.006;12.436;2022-08-19T13:30:02;22.00;;;15.50;;
5195;SDS011;2617;51.006;12.436;2022-08-19T13:35:11;21.90;;;15.77;;
5195;SDS011;2617;51.006;12.436;2022-08-19T13:40:15;25.77;;;17.60;;
5195;SDS011;2617;51.006;12.436;2022-08-19T13:45:18;25.40;;;18.40;;
5195;SDS011;2617;51.006;12.436;2022-08-19T13:50:21;23.57;;;17.43;;
5195;SDS011;2617;51.006;12.436;2022-08-19T13:55:23;21.12;;;15.06;;
5195;SDS011;2617;51.006;12.436;2022-08-19T14:00:31;20.63;;;14.80;;
5195;SDS011;2617;51.006;12.436;2022-08-19T14:05:29;16.60;;;14.07;;
5195;SDS011;2617;51.006;12.436;2022-08-19T14:10:32;17.80;;;13.77;;
5195;SDS011;2617;51.006;12.436;2022-08-19T14:15:34;14.82;;;12.23;;
5195;SDS011;2617;51.006;12.436;2022-08-19T14:20:37;18.40;;;13.10;;
5195;SDS011;2617;51.006;12.436;2022-08-19T14:25:40;15.23;;;11.70;;
5195;SDS011;2617;51.006;12.436;2022-08-19T14:30:42;14.63;;;10.70;;
5195;SDS011;2617;51.006;12.436;2022-08-19T14:35:44;19.80;;;11.90;;
5195;SDS011;2617;51.006;12.436;2022-08-19T14:40:47;13.30;;;11.43;;
5195;SDS011;2617;51.006;12.436;2022-08-19T14:45:49;14.67;;;10.80;;
5195;SDS011;2617;51.006;12.436;2022-08-19T14:50:53;12.50;;;10.63;;
5195;SDS011;2617;51.006;12.436;2022-08-19T14:55:55;13.33;;;11.20;;
5195;SDS011;2617;51.006;12.436;2022-08-19T15:00:58;9.90;;;8.90;;
5195;SDS011;2617;51.006;12.436;2022-08-19T15:06:02;9.90;;;8.90;;
5195;SDS011;2617;51.006;12.436;2022-08-19T15:11:07;9.87;;;8.87;;
5195;SDS011;2617;51.006;12.436;2022-08-19T15:16:09;10.47;;;8.20;;
5195;SDS011;2617;51.006;12.436;2022-08-19T15:21:12;10.25;;;8.77;;
5195;SDS011;2617;51.006;12.436;2022-08-19T15:26:15;18.43;;;10.17;;
5195;SDS011;2617;51.006;12.436;2022-08-19T15:31:18;14.60;;;9.57;;
5195;SDS011;2617;51.006;12.436;2022-08-19T15:36:20;7.87;;;7.00;;
5195;SDS011;2617;51.006;12.436;2022-08-19T15:41:29;9.70;;;7.27;;
5195;SDS011;2617;51.006;12.436;2022-08-19T15:46:29;7.00;;;6.30;;
5195;SDS011;2617;51.006;12.436;2022-08-19T15:51:32;10.73;;;7.50;;
5195;SDS011;2617;51.006;12.436;2022-08-19T15:56:34;8.63;;;7.77;;
5195;SDS011;2617;51.006;12.436;2022-08-19T16:01:42;9.38;;;7.85;;
5195;SDS011;2617;51.006;12.436;2022-08-19T16:06:51;9.27;;;7.93;;
5195;SDS011;2617;51.006;12.436;2022-08-19T16:11:56;9.63;;;8.63;;
5195;SDS011;2617;51.006;12.436;2022-08-19T16:16:59;10.40;;;8.25;;
5195;SDS011;2617;51.006;12.436;2022-08-19T16:22:02;12.43;;;8.57;;
5195;SDS011;2617;51.006;12.436;2022-08-19T16:27:06;7.37;;;6.68;;
5195;SDS011;2617;51.006;12.436;2022-08-19T16:32:09;12.23;;;7.00;;
5195;SDS011;2617;51.006;12.436;2022-08-19T16:37:11;10.73;;;7.70;;
5195;SDS011;2617;51.006;12.436;2022-08-19T16:42:14;7.33;;;6.63;;
5195;SDS011;2617;51.006;12.436;2022-08-19T16:47:16;9.70;;;6.10;;
5195;SDS011;2617;51.006;12.436;2022-08-19T16:52:19;7.70;;;7.00;;
5195;SDS011;2617;51.006;12.436;2022-08-19T16:57:21;7.70;;;7.00;;
5195;SDS011;2617;51.006;12.436;2022-08-19T17:02:23;8.50;;;7.13;;
5195;SDS011;2617;51.006;12.436;2022-08-19T17:07:26;9.03;;;7.10;;
5195;SDS011;2617;51.006;12.436;2022-08-19T17:12:29;11.13;;;9.10;;
5195;SDS011;2617;51.006;12.436;2022-08-19T17:17:32;7.73;;;7.00;;
5195;SDS011;2617;51.006;12.436;2022-08-19T17:22:34;10.60;;;9.20;;
5195;SDS011;2617;51.006;12.436;2022-08-19T17:27:37;8.93;;;7.93;;
5195;SDS011;2617;51.006;12.436;2022-08-19T17:32:40;11.63;;;7.70;;
5195;SDS011;2617;51.006;12.436;2022-08-19T17:37:42;9.53;;;8.17;;
5195;SDS011;2617;51.006;12.436;2022-08-19T17:42:45;8.97;;;7.33;;
5195;SDS011;2617;51.006;12.436;2022-08-19T17:47:49;9.87;;;8.33;;
5195;SDS011;2617;51.006;12.436;2022-08-19T17:52:52;9.33;;;6.87;;
5195;SDS011;2617;51.006;12.436;2022-08-19T17:57:54;13.17;;;8.30;;
5195;SDS011;2617;51.006;12.436;2022-08-19T18:02:57;11.97;;;9.03;;
5195;SDS011;2617;51.006;12.436;2022-08-19T18:07:59;11.57;;;8.50;;
5195;SDS011;2617;51.006;12.436;2022-08-19T18:13:02;12.73;;;9.00;;
5195;SDS011;2617;51.006;12.436;2022-08-19T18:18:05;10.03;;;8.70;;
5195;SDS011;2617;51.006;12.436;2022-08-19T18:23:07;9.10;;;8.15;;
5195;SDS011;2617;51.006;12.436;2022-08-19T18:28:10;9.18;;;8.18;;
5195;SDS011;2617;51.006;12.436;2022-08-19T18:33:12;11.10;;;9.90;;
5195;SDS011;2617;51.006;12.436;2022-08-19T18:38:15;13.10;;;9.93;;
5195;SDS011;2617;51.006;12.436;2022-08-19T18:43:23;11.33;;;10.10;;
5195;SDS011;2617;51.006;12.436;2022-08-19T18:48:34;10.20;;;8.90;;
5195;SDS011;2617;51.006;12.436;2022-08-19T18:53:44;15.18;;;10.20;;
5195;SDS011;2617;51.006;12.436;2022-08-19T18:58:45;12.63;;;10.10;;
5195;SDS011;2617;51.006;12.436;2022-08-19T19:03:48;12.00;;;10.60;;
5195;SDS011;2617;51.006;12.436;2022-08-19T19:08:50;13.87;;;9.50;;
5195;SDS011;2617;51.006;12.436;2022-08-19T19:13:53;11.20;;;10.10;;
5195;SDS011;2617;51.006;12.436;2022-08-19T19:18:57;13.40;;;9.93;;
5195;SDS011;2617;51.006;12.436;2022-08-19T19:24:00;11.60;;;10.20;;
5195;SDS011;2617;51.006;12.436;2022-08-19T19:29:03;12.13;;;10.27;;
5195;SDS011;2617;51.006;12.436;2022-08-19T19:34:05;11.10;;;10.00;;
5195;SDS011;2617;51.006;12.436;2022-08-19T19:39:07;12.10;;;10.80;;
5195;SDS011;2617;51.006;12.436;2022-08-19T19:44:10;11.37;;;10.10;;
5195;SDS011;2617;51.006;12.436;2022-08-19T19:49:12;16.93;;;10.83;;
5195;SDS011;2617;51.006;12.436;2022-08-19T19:54:16;15.70;;;11.52;;
5195;SDS011;2617;51.006;12.436;2022-08-19T19:59:18;14.07;;;11.37;;
5195;SDS011;2617;51.006;12.436;2022-08-19T20:04:20;16.90;;;12.47;;
5195;SDS011;2617;51.006;12.436;2022-08-19T20:09:23;14.10;;;11.30;;
5195;SDS011;2617;51.006;12.436;2022-08-19T20:14:28;13.33;;;10.90;;
5195;SDS011;2617;51.006;12.436;2022-08-19T20:19:29;15.03;;;13.03;;
5195;SDS011;2617;51.006;12.436;2022-08-19T20:24:32;17.70;;;13.20;;
5195;SDS011;2617;51.006;12.436;2022-08-19T20:29:35;20.17;;;13.00;;
5195;SDS011;2617;51.006;12.436;2022-08-19T20:34:39;17.83;;;13.37;;
5195;SDS011;2617;51.006;12.436;2022-08-19T20:39:41;16.43;;;13.33;;
5195;SDS011;2617;51.006;12.436;2022-08-19T20:44:44;16.80;;;12.80;;
5195;SDS011;2617;51.006;12.436;2022-08-19T20:49:47;15.32;;;12.00;;
5195;SDS011;2617;51.006;12.436;2022-08-19T20:54:50;13.40;;;10.67;;
5195;SDS011;2617;51.006;12.436;2022-08-19T20:59:53;19.37;;;13.33;;
5195;SDS011;2617;51.006;12.436;2022-08-19T21:04:56;14.77;;;12.40;;
5195;SDS011;2617;51.006;12.436;2022-08-19T21:09:59;21.77;;;13.47;;
5195;SDS011;2617;51.006;12.436;2022-08-19T21:15:02;18.10;;;13.70;;
5195;SDS011;2617;51.006;12.436;2022-08-19T21:20:04;16.70;;;13.23;;
5195;SDS011;2617;51.006;12.436;2022-08-19T21:25:09;17.07;;;12.63;;
5195;SDS011;2617;51.006;12.436;2022-08-19T21:30:12;15.20;;;11.63;;
5195;SDS011;2617;51.006;12.436;2022-08-19T21:35:14;11.33;;;10.13;;
5195;SDS011;2617;51.006;12.436;2022-08-19T21:40:17;13.87;;;10.93;;
5195;SDS011;2617;51.006;12.436;2022-08-19T21:45:20;16.37;;;12.00;;
5195;SDS011;2617;51.006;12.436;2022-08-19T21:50:23;14.00;;;11.33;;
5195;SDS011;2617;51.006;12.436;2022-08-19T21:55:26;21.10;;;12.47;;
5195;SDS011;2617;51.006;12.436;2022-08-19T22:00:30;17.17;;;12.20;;
5195;SDS011;2617;51.006;12.436;2022-08-19T22:05:32;13.40;;;12.00;;
5195;SDS011;2617;51.006;12.436;2022-08-19T22:10:36;13.70;;;12.13;;
5195;SDS011;2617;51.006;12.436;2022-08-19T22:15:39;17.57;;;12.93;;
5195;SDS011;2617;51.006;12.436;2022-08-19T22:20:41;18.13;;;11.97;;
5195;SDS011;2617;51.006;12.436;2022-08-19T22:25:44;21.00;;;13.17;;
5195;SDS011;2617;51.006;12.436;2022-08-19T22:30:46;26.07;;;13.33;;
5195;SDS011;2617;51.006;12.436;2022-08-19T22:35:49;17.17;;;12.67;;
5195;SDS011;2617;51.006;12.436;2022-08-19T22:40:52;19.67;;;13.77;;
5195;SDS011;2617;51.006;12.436;2022-08-19T22:45:54;20.13;;;13.57;;
5195;SDS011;2617;51.006;12.436;2022-08-19T22:50:57;15.27;;;13.00;;
5195;SDS011;2617;51.006;12.436;2022-08-19T22:56:07;16.77;;;14.33;;
5195;SDS011;2617;51.006;12.436;2022-08-19T23:01:09;17.17;;;14.53;;
5195;SDS011;2617;51.006;12.436;2022-08-19T23:06:12;18.60;;;14.65;;
5195;SDS011;2617;51.006;12.436;2022-08-19T23:11:14;21.37;;;16.50;;
5195;SDS011;2617;51.006;12.436;2022-08-19T23:16:17;19.27;;;15.77;;
5195;SDS011;2617;51.006;12.436;2022-08-19T23:21:19;16.77;;;13.73;;
5195;SDS011;2617;51.006;12.436;2022-08-19T23:26:22;22.90;;;16.40;;
5195;SDS011;2617;51.006;12.436;2022-08-19T23:31:25;22.30;;;15.03;;
5195;SDS011;2617;51.006;12.436;2022-08-19T23:36:28;23.20;;;16.40;;
5195;SDS011;2617;51.006;12.436;2022-08-19T23:41:31;25.52;;;17.42;;
5195;SDS011;2617;51.006;12.436;2022-08-19T23:46:34;25.17;;;18.10;;
5195;SDS011;2617;51.006;12.436;2022-08-19T23:51:36;25.43;;;17.00;;
5195;SDS011;2617;51.006;12.436;2022-08-19T23:56:39;23.93;;;17.53;;
